sensor_id;sensor_type;location;lat;lon;timestamp;P1;durP1;ratioP1;P2;durP2;ratioP2
42000;SDS011;27689;48.390;10.856;2023-05-20T00:01:15;4.80;;;3.87;;
42000;SDS011;27689;48.390;10.856;2023-05-20T00:03:59;4.65;;;3.63;;
42000;SDS011;27689;48.390;10.856;2023-05-20T00:06:43;4.30;;;3.90;;
42000;SDS011;27689;48.390;10.856;2023-05-20T00:09:27;5.55;;;3.83;;
42000;SDS011;27689;48.390;10.856;2023-05-20T00:14:56;4.90;;;3.80;;
42000;SDS011;27689;48.390;10.856;2023-05-20T00:17:40;4.80;;;3.63;;
42000;SDS011;27689;48.390;10.856;2023-05-20T00:20:23;5.28;;;4.55;;
42000;SDS011;27689;48.390;10.856;2023-05-20T00:23:07;4.83;;;3.73;;
42000;SDS011;27689;48.390;10.856;2023-05-20T00:25:51;5.30;;;4.45;;
42000;SDS011;27689;48.390;10.856;2023-05-20T00:28:35;4.45;;;3.90;;
42000;SDS011;27689;48.390;10.856;2023-05-20T00:31:19;5.47;;;4.05;;
42000;SDS011;27689;48.390;10.856;2023-05-20T00:34:04;5.63;;;4.20;;
42000;SDS011;27689;48.390;10.856;2023-05-20T00:36:48;4.28;;;3.88;;
42000;SDS011;27689;48.390;10.856;2023-05-20T00:39:32;4.40;;;3.90;;
42000;SDS011;27689;48.390;10.856;2023-05-20T00:42:23;4.93;;;3.80;;
42000;SDS011;27689;48.390;10.856;2023-05-20T00:45:08;4.10;;;3.70;;
42000;SDS011;27689;48.390;10.856;2023-05-20T00:47:52;4.30;;;3.90;;
42000;SDS011;27689;48.390;10.856;2023-05-20T00:50:39;4.70;;;3.85;;
42000;SDS011;27689;48.390;10.856;2023-05-20T00:53:23;7.10;;;4.80;;
42000;SDS011;27689;48.390;10.856;2023-05-20T00:56:08;5.32;;;4.35;;
42000;SDS011;27689;48.390;10.856;2023-05-20T00:58:52;4.25;;;3.85;;
42000;SDS011;27689;48.390;10.856;2023-05-20T01:01:37;5.25;;;4.10;;
42000;SDS011;27689;48.390;10.856;2023-05-20T01:04:20;5.60;;;4.33;;
42000;SDS011;27689;48.390;10.856;2023-05-20T01:07:04;5.72;;;4.57;;
42000;SDS011;27689;48.390;10.856;2023-05-20T01:09:49;6.15;;;4.00;;
42000;SDS011;27689;48.390;10.856;2023-05-20T01:12:36;6.35;;;4.00;;
42000;SDS011;27689;48.390;10.856;2023-05-20T01:15:25;5.63;;;4.30;;
42000;SDS011;27689;48.390;10.856;2023-05-20T01:18:10;4.53;;;3.97;;
42000;SDS011;27689;48.390;10.856;2023-05-20T01:21:01;6.22;;;4.68;;
42000;SDS011;27689;48.390;10.856;2023-05-20T01:23:46;4.53;;;3.97;;
42000;SDS011;27689;48.390;10.856;2023-05-20T01:26:30;5.25;;;4.75;;
42000;SDS011;27689;48.390;10.856;2023-05-20T01:29:16;4.70;;;4.22;;
42000;SDS011;27689;48.390;10.856;2023-05-20T01:34:47;5.57;;;4.43;;
42000;SDS011;27689;48.390;10.856;2023-05-20T01:37:37;6.47;;;4.43;;
42000;SDS011;27689;48.390;10.856;2023-05-20T01:40:22;5.20;;;4.15;;
42000;SDS011;27689;48.390;10.856;2023-05-20T01:43:08;5.45;;;4.50;;
42000;SDS011;27689;48.390;10.856;2023-05-20T01:45:52;4.55;;;4.07;;
42000;SDS011;27689;48.390;10.856;2023-05-20T01:48:36;6.25;;;4.60;;
42000;SDS011;27689;48.390;10.856;2023-05-20T01:51:20;6.05;;;4.63;;
42000;SDS011;27689;48.390;10.856;2023-05-20T01:54:04;5.77;;;4.93;;
42000;SDS011;27689;48.390;10.856;2023-05-20T01:56:48;4.70;;;4.25;;
42000;SDS011;27689;48.390;10.856;2023-05-20T01:59:33;5.25;;;4.63;;
42000;SDS011;27689;48.390;10.856;2023-05-20T02:02:17;5.15;;;4.13;;
42000;SDS011;27689;48.390;10.856;2023-05-20T02:05:01;5.67;;;5.10;;
42000;SDS011;27689;48.390;10.856;2023-05-20T02:07:45;5.07;;;4.38;;
42000;SDS011;27689;48.390;10.856;2023-05-20T02:10:29;5.07;;;4.57;;
42000;SDS011;27689;48.390;10.856;2023-05-20T02:13:13;4.95;;;4.43;;
42000;SDS011;27689;48.390;10.856;2023-05-20T02:15:57;5.23;;;4.53;;
42000;SDS011;27689;48.390;10.856;2023-05-20T02:18:41;6.47;;;4.68;;
42000;SDS011;27689;48.390;10.856;2023-05-20T02:21:25;6.25;;;5.38;;
42000;SDS011;27689;48.390;10.856;2023-05-20T02:24:09;6.32;;;4.97;;
42000;SDS011;27689;48.390;10.856;2023-05-20T02:26:53;6.83;;;4.80;;
42000;SDS011;27689;48.390;10.856;2023-05-20T02:32:22;4.93;;;4.43;;
42000;SDS011;27689;48.390;10.856;2023-05-20T02:35:10;6.00;;;4.95;;
42000;SDS011;27689;48.390;10.856;2023-05-20T02:37:54;6.47;;;4.88;;
42000;SDS011;27689;48.390;10.856;2023-05-20T02:40:38;5.40;;;4.87;;
42000;SDS011;27689;48.390;10.856;2023-05-20T02:43:22;5.90;;;4.88;;
42000;SDS011;27689;48.390;10.856;2023-05-20T02:46:06;5.50;;;5.00;;
42000;SDS011;27689;48.390;10.856;2023-05-20T02:48:50;7.07;;;5.40;;
42000;SDS011;27689;48.390;10.856;2023-05-20T02:51:34;6.30;;;5.57;;
42000;SDS011;27689;48.390;10.856;2023-05-20T02:54:18;6.43;;;5.30;;
42000;SDS011;27689;48.390;10.856;2023-05-20T02:57:02;5.83;;;5.20;;
42000;SDS011;27689;48.390;10.856;2023-05-20T02:59:46;6.55;;;4.93;;
42000;SDS011;27689;48.390;10.856;2023-05-20T03:02:32;6.97;;;5.47;;
42000;SDS011;27689;48.390;10.856;2023-05-20T03:05:16;7.00;;;5.50;;
42000;SDS011;27689;48.390;10.856;2023-05-20T03:08:00;6.50;;;5.90;;
42000;SDS011;27689;48.390;10.856;2023-05-20T03:10:44;6.75;;;5.07;;
42000;SDS011;27689;48.390;10.856;2023-05-20T03:13:28;6.50;;;5.35;;
42000;SDS011;27689;48.390;10.856;2023-05-20T03:16:12;6.38;;;4.97;;
42000;SDS011;27689;48.390;10.856;2023-05-20T03:18:56;6.40;;;5.20;;
42000;SDS011;27689;48.390;10.856;2023-05-20T03:21:40;7.75;;;5.10;;
42000;SDS011;27689;48.390;10.856;2023-05-20T03:24:27;5.70;;;5.10;;
42000;SDS011;27689;48.390;10.856;2023-05-20T03:29:55;7.07;;;5.50;;
42000;SDS011;27689;48.390;10.856;2023-05-20T03:32:39;6.68;;;5.45;;
42000;SDS011;27689;48.390;10.856;2023-05-20T03:35:24;6.05;;;5.30;;
42000;SDS011;27689;48.390;10.856;2023-05-20T03:38:08;7.03;;;5.72;;
42000;SDS011;27689;48.390;10.856;2023-05-20T03:40:52;6.93;;;5.87;;
42000;SDS011;27689;48.390;10.856;2023-05-20T03:43:36;7.47;;;5.13;;
42000;SDS011;27689;48.390;10.856;2023-05-20T03:46:20;6.33;;;5.73;;
42000;SDS011;27689;48.390;10.856;2023-05-20T03:49:04;5.95;;;5.35;;
42000;SDS011;27689;48.390;10.856;2023-05-20T03:51:48;9.40;;;6.18;;
42000;SDS011;27689;48.390;10.856;2023-05-20T03:54:32;7.43;;;5.80;;
42000;SDS011;27689;48.390;10.856;2023-05-20T03:57:18;7.18;;;6.05;;
42000;SDS011;27689;48.390;10.856;2023-05-20T04:00:03;6.20;;;5.60;;
42000;SDS011;27689;48.390;10.856;2023-05-20T04:02:52;6.57;;;5.68;;
42000;SDS011;27689;48.390;10.856;2023-05-20T04:05:36;9.00;;;5.83;;
42000;SDS011;27689;48.390;10.856;2023-05-20T04:08:20;6.38;;;5.60;;
42000;SDS011;27689;48.390;10.856;2023-05-20T04:11:04;5.97;;;5.32;;
42000;SDS011;27689;48.390;10.856;2023-05-20T04:13:48;7.18;;;5.93;;
42000;SDS011;27689;48.390;10.856;2023-05-20T04:16:33;7.27;;;6.57;;
42000;SDS011;27689;48.390;10.856;2023-05-20T04:19:16;6.95;;;5.13;;
42000;SDS011;27689;48.390;10.856;2023-05-20T04:22:02;6.50;;;5.78;;
42000;SDS011;27689;48.390;10.856;2023-05-20T04:27:31;6.78;;;5.90;;
42000;SDS011;27689;48.390;10.856;2023-05-20T04:30:16;7.30;;;5.80;;
42000;SDS011;27689;48.390;10.856;2023-05-20T04:33:00;8.73;;;6.20;;
42000;SDS011;27689;48.390;10.856;2023-05-20T04:38:31;6.97;;;5.75;;
42000;SDS011;27689;48.390;10.856;2023-05-20T04:41:14;6.80;;;5.65;;
42000;SDS011;27689;48.390;10.856;2023-05-20T04:43:58;7.72;;;6.40;;
42000;SDS011;27689;48.390;10.856;2023-05-20T04:49:28;8.43;;;6.20;;
42000;SDS011;27689;48.390;10.856;2023-05-20T04:52:12;7.13;;;6.40;;
42000;SDS011;27689;48.390;10.856;2023-05-20T04:54:56;6.72;;;5.97;;
42000;SDS011;27689;48.390;10.856;2023-05-20T04:57:41;6.90;;;6.20;;
42000;SDS011;27689;48.390;10.856;2023-05-20T05:00:24;8.02;;;6.68;;
42000;SDS011;27689;48.390;10.856;2023-05-20T05:03:08;9.00;;;6.65;;
42000;SDS011;27689;48.390;10.856;2023-05-20T05:05:56;8.35;;;6.30;;
42000;SDS011;27689;48.390;10.856;2023-05-20T05:08:40;8.13;;;6.93;;
42000;SDS011;27689;48.390;10.856;2023-05-20T05:11:24;7.10;;;6.27;;
42000;SDS011;27689;48.390;10.856;2023-05-20T05:14:09;7.60;;;6.78;;
42000;SDS011;27689;48.390;10.856;2023-05-20T05:16:53;7.03;;;6.32;;
42000;SDS011;27689;48.390;10.856;2023-05-20T05:19:37;7.95;;;7.15;;
42000;SDS011;27689;48.390;10.856;2023-05-20T05:22:21;7.95;;;6.60;;
42000;SDS011;27689;48.390;10.856;2023-05-20T05:25:05;8.63;;;7.10;;
42000;SDS011;27689;48.390;10.856;2023-05-20T05:27:50;9.55;;;8.00;;
42000;SDS011;27689;48.390;10.856;2023-05-20T05:30:34;8.27;;;7.32;;
42000;SDS011;27689;48.390;10.856;2023-05-20T05:33:18;10.75;;;8.30;;
42000;SDS011;27689;48.390;10.856;2023-05-20T05:36:02;11.50;;;8.48;;
42000;SDS011;27689;48.390;10.856;2023-05-20T05:38:47;10.13;;;8.55;;
42000;SDS011;27689;48.390;10.856;2023-05-20T05:41:31;10.07;;;9.00;;
42000;SDS011;27689;48.390;10.856;2023-05-20T05:44:16;12.95;;;9.63;;
42000;SDS011;27689;48.390;10.856;2023-05-20T05:46:59;13.63;;;9.90;;
42000;SDS011;27689;48.390;10.856;2023-05-20T05:49:43;13.73;;;10.70;;
42000;SDS011;27689;48.390;10.856;2023-05-20T05:52:27;12.05;;;9.73;;
42000;SDS011;27689;48.390;10.856;2023-05-20T05:55:11;12.93;;;9.32;;
42000;SDS011;27689;48.390;10.856;2023-05-20T05:57:55;12.95;;;11.40;;
42000;SDS011;27689;48.390;10.856;2023-05-20T06:00:39;14.40;;;10.20;;
42000;SDS011;27689;48.390;10.856;2023-05-20T06:03:23;13.10;;;10.45;;
42000;SDS011;27689;48.390;10.856;2023-05-20T06:06:07;12.93;;;9.63;;
42000;SDS011;27689;48.390;10.856;2023-05-20T06:08:51;14.07;;;11.35;;
42000;SDS011;27689;48.390;10.856;2023-05-20T06:11:35;13.38;;;11.48;;
42000;SDS011;27689;48.390;10.856;2023-05-20T06:14:19;11.05;;;9.02;;
42000;SDS011;27689;48.390;10.856;2023-05-20T06:17:03;12.70;;;11.20;;
42000;SDS011;27689;48.390;10.856;2023-05-20T06:19:48;12.43;;;10.95;;
42000;SDS011;27689;48.390;10.856;2023-05-20T06:22:32;13.20;;;11.90;;
42000;SDS011;27689;48.390;10.856;2023-05-20T06:25:16;11.23;;;9.65;;
42000;SDS011;27689;48.390;10.856;2023-05-20T06:28:00;11.47;;;10.10;;
42000;SDS011;27689;48.390;10.856;2023-05-20T06:30:43;10.73;;;9.13;;
42000;SDS011;27689;48.390;10.856;2023-05-20T06:33:27;11.10;;;10.00;;
42000;SDS011;27689;48.390;10.856;2023-05-20T06:36:12;11.43;;;9.88;;
42000;SDS011;27689;48.390;10.856;2023-05-20T06:38:56;18.30;;;14.00;;
42000;SDS011;27689;48.390;10.856;2023-05-20T06:41:40;12.27;;;10.82;;
42000;SDS011;27689;48.390;10.856;2023-05-20T06:44:26;12.32;;;10.40;;
42000;SDS011;27689;48.390;10.856;2023-05-20T06:47:09;13.88;;;10.80;;
42000;SDS011;27689;48.390;10.856;2023-05-20T06:49:54;10.60;;;9.50;;
42000;SDS011;27689;48.390;10.856;2023-05-20T06:52:38;11.15;;;10.05;;
42000;SDS011;27689;48.390;10.856;2023-05-20T06:55:22;10.82;;;9.55;;
42000;SDS011;27689;48.390;10.856;2023-05-20T06:58:05;14.23;;;10.25;;
42000;SDS011;27689;48.390;10.856;2023-05-20T07:00:49;10.70;;;9.60;;
42000;SDS011;27689;48.390;10.856;2023-05-20T07:03:33;12.75;;;10.63;;
42000;SDS011;27689;48.390;10.856;2023-05-20T07:06:17;11.07;;;9.82;;
42000;SDS011;27689;48.390;10.856;2023-05-20T07:09:01;11.75;;;9.27;;
42000;SDS011;27689;48.390;10.856;2023-05-20T07:11:45;12.85;;;9.38;;
42000;SDS011;27689;48.390;10.856;2023-05-20T07:14:29;11.45;;;9.18;;
42000;SDS011;27689;48.390;10.856;2023-05-20T07:17:13;13.13;;;10.15;;
42000;SDS011;27689;48.390;10.856;2023-05-20T07:19:57;13.20;;;10.35;;
42000;SDS011;27689;48.390;10.856;2023-05-20T07:22:41;11.15;;;9.55;;
42000;SDS011;27689;48.390;10.856;2023-05-20T07:25:26;12.10;;;10.23;;
42000;SDS011;27689;48.390;10.856;2023-05-20T07:28:10;10.38;;;9.38;;
42000;SDS011;27689;48.390;10.856;2023-05-20T07:30:54;10.63;;;9.37;;
42000;SDS011;27689;48.390;10.856;2023-05-20T07:33:39;11.20;;;9.57;;
42000;SDS011;27689;48.390;10.856;2023-05-20T07:36:27;12.35;;;10.50;;
42000;SDS011;27689;48.390;10.856;2023-05-20T07:39:12;11.30;;;10.20;;
42000;SDS011;27689;48.390;10.856;2023-05-20T07:44:41;12.40;;;11.10;;
42000;SDS011;27689;48.390;10.856;2023-05-20T07:47:25;11.25;;;9.85;;
42000;SDS011;27689;48.390;10.856;2023-05-20T07:50:09;11.38;;;9.73;;
42000;SDS011;27689;48.390;10.856;2023-05-20T07:52:53;13.13;;;10.40;;
42000;SDS011;27689;48.390;10.856;2023-05-20T07:55:37;11.55;;;9.63;;
42000;SDS011;27689;48.390;10.856;2023-05-20T07:58:22;11.65;;;9.13;;
42000;SDS011;27689;48.390;10.856;2023-05-20T08:01:05;10.43;;;9.38;;
42000;SDS011;27689;48.390;10.856;2023-05-20T08:03:51;10.60;;;9.55;;
42000;SDS011;27689;48.390;10.856;2023-05-20T08:06:36;10.52;;;9.50;;
42000;SDS011;27689;48.390;10.856;2023-05-20T08:09:20;10.38;;;9.38;;
42000;SDS011;27689;48.390;10.856;2023-05-20T08:12:04;11.02;;;9.95;;
42000;SDS011;27689;48.390;10.856;2023-05-20T08:14:49;10.05;;;9.05;;
42000;SDS011;27689;48.390;10.856;2023-05-20T08:17:33;10.70;;;9.60;;
42000;SDS011;27689;48.390;10.856;2023-05-20T08:20:18;9.55;;;8.65;;
42000;SDS011;27689;48.390;10.856;2023-05-20T08:23:03;9.75;;;8.73;;
42000;SDS011;27689;48.390;10.856;2023-05-20T08:25:47;8.80;;;8.00;;
42000;SDS011;27689;48.390;10.856;2023-05-20T08:28:31;8.95;;;8.07;;
42000;SDS011;27689;48.390;10.856;2023-05-20T08:31:15;9.25;;;8.35;;
42000;SDS011;27689;48.390;10.856;2023-05-20T08:34:00;8.73;;;7.93;;
42000;SDS011;27689;48.390;10.856;2023-05-20T08:36:44;9.88;;;8.85;;
42000;SDS011;27689;48.390;10.856;2023-05-20T08:39:28;8.43;;;7.63;;
42000;SDS011;27689;48.390;10.856;2023-05-20T08:42:12;8.90;;;7.13;;
42000;SDS011;27689;48.390;10.856;2023-05-20T08:44:56;7.33;;;6.63;;
42000;SDS011;27689;48.390;10.856;2023-05-20T08:47:42;8.35;;;7.32;;
42000;SDS011;27689;48.390;10.856;2023-05-20T08:53:10;7.72;;;7.00;;
42000;SDS011;27689;48.390;10.856;2023-05-20T08:55:55;8.60;;;7.80;;
42000;SDS011;27689;48.390;10.856;2023-05-20T08:58:40;9.73;;;8.10;;
42000;SDS011;27689;48.390;10.856;2023-05-20T09:01:26;7.35;;;6.65;;
42000;SDS011;27689;48.390;10.856;2023-05-20T09:04:10;8.13;;;7.10;;
42000;SDS011;27689;48.390;10.856;2023-05-20T09:06:54;13.60;;;7.63;;
42000;SDS011;27689;48.390;10.856;2023-05-20T09:09:38;7.63;;;6.90;;
42000;SDS011;27689;48.390;10.856;2023-05-20T09:12:22;6.88;;;6.22;;
42000;SDS011;27689;48.390;10.856;2023-05-20T09:15:07;7.32;;;6.38;;
42000;SDS011;27689;48.390;10.856;2023-05-20T09:17:51;7.20;;;6.50;;
42000;SDS011;27689;48.390;10.856;2023-05-20T09:20:35;7.05;;;6.32;;
42000;SDS011;27689;48.390;10.856;2023-05-20T09:23:20;6.88;;;6.18;;
42000;SDS011;27689;48.390;10.856;2023-05-20T09:26:04;7.10;;;6.40;;
42000;SDS011;27689;48.390;10.856;2023-05-20T09:28:48;6.95;;;6.30;;
42000;SDS011;27689;48.390;10.856;2023-05-20T09:31:34;7.93;;;6.63;;
42000;SDS011;27689;48.390;10.856;2023-05-20T09:34:19;6.65;;;6.05;;
42000;SDS011;27689;48.390;10.856;2023-05-20T09:37:04;9.23;;;6.40;;
42000;SDS011;27689;48.390;10.856;2023-05-20T09:39:54;7.10;;;6.40;;
42000;SDS011;27689;48.390;10.856;2023-05-20T09:42:49;7.43;;;5.70;;
42000;SDS011;27689;48.390;10.856;2023-05-20T09:45:36;8.30;;;5.97;;
42000;SDS011;27689;48.390;10.856;2023-05-20T09:48:20;6.10;;;4.60;;
42000;SDS011;27689;48.390;10.856;2023-05-20T09:51:08;6.72;;;5.68;;
42000;SDS011;27689;48.390;10.856;2023-05-20T09:53:54;7.13;;;6.40;;
42000;SDS011;27689;48.390;10.856;2023-05-20T09:56:40;8.15;;;5.68;;
42000;SDS011;27689;48.390;10.856;2023-05-20T10:02:09;7.03;;;5.50;;
42000;SDS011;27689;48.390;10.856;2023-05-20T10:04:54;7.07;;;6.07;;
42000;SDS011;27689;48.390;10.856;2023-05-20T10:07:51;6.25;;;5.15;;
42000;SDS011;27689;48.390;10.856;2023-05-20T10:11:18;7.03;;;5.25;;
42000;SDS011;27689;48.390;10.856;2023-05-20T10:14:22;5.72;;;5.13;;
42000;SDS011;27689;48.390;10.856;2023-05-20T10:17:14;5.93;;;5.07;;
42000;SDS011;27689;48.390;10.856;2023-05-20T10:20:06;7.85;;;5.03;;
42000;SDS011;27689;48.390;10.856;2023-05-20T10:22:57;5.78;;;4.45;;
42000;SDS011;27689;48.390;10.856;2023-05-20T10:25:48;5.82;;;4.30;;
42000;SDS011;27689;48.390;10.856;2023-05-20T10:28:34;8.23;;;4.75;;
42000;SDS011;27689;48.390;10.856;2023-05-20T10:31:20;4.93;;;4.45;;
42000;SDS011;27689;48.390;10.856;2023-05-20T10:34:04;5.80;;;5.07;;
42000;SDS011;27689;48.390;10.856;2023-05-20T10:36:59;5.88;;;4.72;;
42000;SDS011;27689;48.390;10.856;2023-05-20T10:39:43;6.60;;;4.72;;
42000;SDS011;27689;48.390;10.856;2023-05-20T10:42:27;6.03;;;5.07;;
42000;SDS011;27689;48.390;10.856;2023-05-20T10:45:28;6.03;;;4.22;;
42000;SDS011;27689;48.390;10.856;2023-05-20T10:48:26;5.32;;;4.47;;
42000;SDS011;27689;48.390;10.856;2023-05-20T10:51:12;5.30;;;4.80;;
42000;SDS011;27689;48.390;10.856;2023-05-20T10:53:57;6.95;;;4.53;;
42000;SDS011;27689;48.390;10.856;2023-05-20T10:56:49;6.45;;;4.38;;
42000;SDS011;27689;48.390;10.856;2023-05-20T10:59:35;5.22;;;4.60;;
42000;SDS011;27689;48.390;10.856;2023-05-20T11:02:19;8.32;;;4.40;;
42000;SDS011;27689;48.390;10.856;2023-05-20T11:05:10;4.43;;;4.03;;
42000;SDS011;27689;48.390;10.856;2023-05-20T11:08:28;5.03;;;4.20;;
42000;SDS011;27689;48.390;10.856;2023-05-20T11:11:05;4.68;;;4.22;;
42000;SDS011;27689;48.390;10.856;2023-05-20T11:13:50;5.72;;;4.00;;
42000;SDS011;27689;48.390;10.856;2023-05-20T11:16:35;5.07;;;4.40;;
42000;SDS011;27689;48.390;10.856;2023-05-20T11:19:20;4.35;;;3.95;;
42000;SDS011;27689;48.390;10.856;2023-05-20T11:22:06;5.82;;;4.30;;
42000;SDS011;27689;48.390;10.856;2023-05-20T11:24:50;4.93;;;4.43;;
42000;SDS011;27689;48.390;10.856;2023-05-20T11:27:37;4.57;;;3.85;;
42000;SDS011;27689;48.390;10.856;2023-05-20T11:30:22;4.50;;;4.03;;
42000;SDS011;27689;48.390;10.856;2023-05-20T11:33:06;7.85;;;4.63;;
42000;SDS011;27689;48.390;10.856;2023-05-20T11:35:55;5.18;;;3.92;;
42000;SDS011;27689;48.390;10.856;2023-05-20T11:38:40;4.57;;;4.18;;
42000;SDS011;27689;48.390;10.856;2023-05-20T11:41:25;7.47;;;4.40;;
42000;SDS011;27689;48.390;10.856;2023-05-20T11:44:10;4.32;;;3.90;;
42000;SDS011;27689;48.390;10.856;2023-05-20T11:46:58;7.15;;;4.90;;
42000;SDS011;27689;48.390;10.856;2023-05-20T11:49:46;5.30;;;3.72;;
42000;SDS011;27689;48.390;10.856;2023-05-20T11:52:32;5.00;;;3.75;;
42000;SDS011;27689;48.390;10.856;2023-05-20T11:58:00;4.68;;;3.88;;
42000;SDS011;27689;48.390;10.856;2023-05-20T12:00:46;6.05;;;4.40;;
42000;SDS011;27689;48.390;10.856;2023-05-20T12:03:30;4.22;;;3.83;;
42000;SDS011;27689;48.390;10.856;2023-05-20T12:06:18;9.32;;;5.60;;
42000;SDS011;27689;48.390;10.856;2023-05-20T12:09:03;8.25;;;4.70;;
42000;SDS011;27689;48.390;10.856;2023-05-20T12:11:49;7.68;;;5.03;;
42000;SDS011;27689;48.390;10.856;2023-05-20T12:14:33;5.15;;;4.57;;
42000;SDS011;27689;48.390;10.856;2023-05-20T12:17:17;5.40;;;3.88;;
42000;SDS011;27689;48.390;10.856;2023-05-20T12:20:01;4.57;;;3.40;;
42000;SDS011;27689;48.390;10.856;2023-05-20T12:22:45;5.77;;;3.73;;
42000;SDS011;27689;48.390;10.856;2023-05-20T12:25:29;4.27;;;3.20;;
42000;SDS011;27689;48.390;10.856;2023-05-20T12:28:13;5.10;;;3.83;;
42000;SDS011;27689;48.390;10.856;2023-05-20T12:30:57;5.30;;;4.10;;
42000;SDS011;27689;48.390;10.856;2023-05-20T12:33:41;4.55;;;3.80;;
42000;SDS011;27689;48.390;10.856;2023-05-20T12:36:25;4.82;;;3.83;;
42000;SDS011;27689;48.390;10.856;2023-05-20T12:41:54;5.15;;;3.67;;
42000;SDS011;27689;48.390;10.856;2023-05-20T12:44:38;3.63;;;3.33;;
42000;SDS011;27689;48.390;10.856;2023-05-20T12:47:22;4.13;;;3.30;;
42000;SDS011;27689;48.390;10.856;2023-05-20T12:50:06;3.28;;;2.97;;
42000;SDS011;27689;48.390;10.856;2023-05-20T12:52:50;3.97;;;2.97;;
42000;SDS011;27689;48.390;10.856;2023-05-20T12:55:34;5.18;;;3.65;;
42000;SDS011;27689;48.390;10.856;2023-05-20T12:58:18;3.97;;;3.27;;
42000;SDS011;27689;48.390;10.856;2023-05-20T13:01:02;2.80;;;2.50;;
42000;SDS011;27689;48.390;10.856;2023-05-20T13:03:46;3.33;;;3.00;;
42000;SDS011;27689;48.390;10.856;2023-05-20T13:06:30;5.00;;;3.10;;
42000;SDS011;27689;48.390;10.856;2023-05-20T13:09:14;3.85;;;3.15;;
42000;SDS011;27689;48.390;10.856;2023-05-20T13:11:59;4.53;;;3.22;;
42000;SDS011;27689;48.390;10.856;2023-05-20T13:14:44;5.03;;;3.42;;
42000;SDS011;27689;48.390;10.856;2023-05-20T13:17:28;7.53;;;3.40;;
42000;SDS011;27689;48.390;10.856;2023-05-20T13:20:12;5.10;;;3.53;;
42000;SDS011;27689;48.390;10.856;2023-05-20T13:22:55;4.13;;;2.97;;
42000;SDS011;27689;48.390;10.856;2023-05-20T13:25:40;4.00;;;3.07;;
42000;SDS011;27689;48.390;10.856;2023-05-20T13:28:24;5.13;;;3.20;;
42000;SDS011;27689;48.390;10.856;2023-05-20T13:31:08;4.13;;;3.47;;
42000;SDS011;27689;48.390;10.856;2023-05-20T13:33:52;4.90;;;3.42;;
42000;SDS011;27689;48.390;10.856;2023-05-20T13:36:37;4.53;;;3.80;;
42000;SDS011;27689;48.390;10.856;2023-05-20T13:39:23;4.50;;;3.30;;
42000;SDS011;27689;48.390;10.856;2023-05-20T13:42:07;4.15;;;3.70;;
42000;SDS011;27689;48.390;10.856;2023-05-20T13:44:51;6.47;;;3.60;;
42000;SDS011;27689;48.390;10.856;2023-05-20T13:47:35;3.95;;;3.20;;
42000;SDS011;27689;48.390;10.856;2023-05-20T13:50:19;4.20;;;3.80;;
42000;SDS011;27689;48.390;10.856;2023-05-20T13:53:03;5.82;;;3.30;;
42000;SDS011;27689;48.390;10.856;2023-05-20T13:55:47;7.32;;;4.40;;
42000;SDS011;27689;48.390;10.856;2023-05-20T13:58:31;4.78;;;4.30;;
42000;SDS011;27689;48.390;10.856;2023-05-20T14:01:15;6.23;;;3.80;;
42000;SDS011;27689;48.390;10.856;2023-05-20T14:03:59;4.33;;;3.40;;
42000;SDS011;27689;48.390;10.856;2023-05-20T14:06:43;7.75;;;3.83;;
42000;SDS011;27689;48.390;10.856;2023-05-20T14:09:27;4.60;;;4.07;;
42000;SDS011;27689;48.390;10.856;2023-05-20T14:12:11;5.33;;;4.10;;
42000;SDS011;27689;48.390;10.856;2023-05-20T14:14:55;5.43;;;4.70;;
42000;SDS011;27689;48.390;10.856;2023-05-20T14:17:40;5.50;;;5.00;;
42000;SDS011;27689;48.390;10.856;2023-05-20T14:20:24;5.22;;;4.63;;
42000;SDS011;27689;48.390;10.856;2023-05-20T14:23:08;5.13;;;4.63;;
42000;SDS011;27689;48.390;10.856;2023-05-20T14:25:52;5.43;;;3.85;;
42000;SDS011;27689;48.390;10.856;2023-05-20T14:28:37;5.47;;;4.47;;
42000;SDS011;27689;48.390;10.856;2023-05-20T14:31:21;5.90;;;4.53;;
42000;SDS011;27689;48.390;10.856;2023-05-20T14:34:05;7.30;;;4.33;;
42000;SDS011;27689;48.390;10.856;2023-05-20T14:36:49;6.53;;;4.30;;
42000;SDS011;27689;48.390;10.856;2023-05-20T14:39:33;7.45;;;4.95;;
42000;SDS011;27689;48.390;10.856;2023-05-20T14:42:18;6.95;;;4.78;;
42000;SDS011;27689;48.390;10.856;2023-05-20T14:45:02;6.07;;;5.00;;
42000;SDS011;27689;48.390;10.856;2023-05-20T14:47:46;8.98;;;5.40;;
42000;SDS011;27689;48.390;10.856;2023-05-20T14:50:30;11.73;;;4.82;;
42000;SDS011;27689;48.390;10.856;2023-05-20T14:53:14;9.03;;;5.80;;
42000;SDS011;27689;48.390;10.856;2023-05-20T14:55:59;8.73;;;6.22;;
42000;SDS011;27689;48.390;10.856;2023-05-20T14:58:43;6.37;;;5.43;;
42000;SDS011;27689;48.390;10.856;2023-05-20T15:01:27;6.90;;;5.40;;
42000;SDS011;27689;48.390;10.856;2023-05-20T15:04:11;9.30;;;5.97;;
42000;SDS011;27689;48.390;10.856;2023-05-20T15:06:55;5.57;;;4.93;;
42000;SDS011;27689;48.390;10.856;2023-05-20T15:09:39;7.10;;;5.45;;
42000;SDS011;27689;48.390;10.856;2023-05-20T15:12:23;7.03;;;5.33;;
42000;SDS011;27689;48.390;10.856;2023-05-20T15:15:08;7.70;;;5.70;;
42000;SDS011;27689;48.390;10.856;2023-05-20T15:20:36;6.70;;;5.53;;
42000;SDS011;27689;48.390;10.856;2023-05-20T15:23:20;8.87;;;5.63;;
42000;SDS011;27689;48.390;10.856;2023-05-20T15:26:05;6.93;;;5.83;;
42000;SDS011;27689;48.390;10.856;2023-05-20T15:28:48;6.70;;;5.97;;
42000;SDS011;27689;48.390;10.856;2023-05-20T15:31:32;6.90;;;5.10;;
42000;SDS011;27689;48.390;10.856;2023-05-20T15:34:17;5.35;;;4.85;;
42000;SDS011;27689;48.390;10.856;2023-05-20T15:37:01;7.70;;;5.82;;
42000;SDS011;27689;48.390;10.856;2023-05-20T15:39:45;9.80;;;6.57;;
42000;SDS011;27689;48.390;10.856;2023-05-20T15:42:29;8.37;;;5.93;;
42000;SDS011;27689;48.390;10.856;2023-05-20T15:45:13;7.13;;;5.17;;
42000;SDS011;27689;48.390;10.856;2023-05-20T15:47:57;7.47;;;5.60;;
42000;SDS011;27689;48.390;10.856;2023-05-20T15:50:41;6.55;;;5.95;;
42000;SDS011;27689;48.390;10.856;2023-05-20T15:53:25;8.48;;;6.57;;
42000;SDS011;27689;48.390;10.856;2023-05-20T15:56:10;8.27;;;6.13;;
42000;SDS011;27689;48.390;10.856;2023-05-20T16:01:38;8.18;;;6.30;;
42000;SDS011;27689;48.390;10.856;2023-05-20T16:04:22;7.50;;;6.45;;
42000;SDS011;27689;48.390;10.856;2023-05-20T16:07:07;6.47;;;5.70;;
42000;SDS011;27689;48.390;10.856;2023-05-20T16:09:51;12.83;;;6.60;;
42000;SDS011;27689;48.390;10.856;2023-05-20T16:12:35;7.43;;;6.72;;
42000;SDS011;27689;48.390;10.856;2023-05-20T16:15:19;9.25;;;7.05;;
42000;SDS011;27689;48.390;10.856;2023-05-20T16:18:03;7.05;;;6.32;;
42000;SDS011;27689;48.390;10.856;2023-05-20T16:20:47;7.90;;;7.10;;
42000;SDS011;27689;48.390;10.856;2023-05-20T16:23:31;8.88;;;7.00;;
42000;SDS011;27689;48.390;10.856;2023-05-20T16:26:16;8.45;;;7.47;;
42000;SDS011;27689;48.390;10.856;2023-05-20T16:29:00;7.63;;;6.93;;
42000;SDS011;27689;48.390;10.856;2023-05-20T16:31:44;9.18;;;6.95;;
42000;SDS011;27689;48.390;10.856;2023-05-20T16:34:30;8.77;;;6.68;;
42000;SDS011;27689;48.390;10.856;2023-05-20T16:37:15;8.85;;;6.93;;
42000;SDS011;27689;48.390;10.856;2023-05-20T16:39:59;7.57;;;6.85;;
42000;SDS011;27689;48.390;10.856;2023-05-20T16:42:43;11.13;;;6.97;;
42000;SDS011;27689;48.390;10.856;2023-05-20T16:45:27;9.35;;;7.18;;
42000;SDS011;27689;48.390;10.856;2023-05-20T16:48:11;8.35;;;7.47;;
42000;SDS011;27689;48.390;10.856;2023-05-20T16:50:55;10.13;;;7.65;;
42000;SDS011;27689;48.390;10.856;2023-05-20T16:53:39;10.57;;;7.57;;